Time;durP1;ratioP1;P1;durP2;ratioP2;P2;SDS_P1;SDS_P2;PMS_P1;PMS_P2;Temp;Humidity;BMP_temperature;BMP_pressure;BME280_temperature;BME280_humidity;BME280_pressure;Samples;Min_cycle;Max_cycle;Signal;HPM_P1;HPM_P2
2022/10/25 00:00:44;;;;;;;;;;;16.50;98.00;;;;;;5055951;28;20307;-73
2022/10/25 00:03:11;;;;;;;1.33;1.17;;;16.50;98.00;;;;;;5057239;28;19913;-74
2022/10/25 00:05:55;;;;;;;3.88;2.10;;;16.50;98.00;;;;;;5057063;28;20021;-74
2022/10/25 00:08:30;;;;;;;1.05;0.85;;;16.50;98.00;;;;;;5057148;28;20485;-73
2022/10/25 00:11:06;;;;;;;0.38;0.38;;;16.20;98.00;;;;;;5058145;28;20025;-73
2022/10/25 00:13:32;;;;;;;0.10;0.10;;;15.90;98.00;;;;;;5058145;28;20025;-74
2022/10/25 00:16:41;;;;;;;0.10;0.10;;;15.70;98.00;;;;;;5057009;28;20035;-74
2022/10/25 00:19:16;;;;;;;2.85;0.35;;;15.50;98.00;;;;;;5058021;28;20100;-73
2022/10/25 00:21:50;;;;;;;0.00;0.00;;;15.50;98.00;;;;;;5057814;28;20036;-74
2022/10/25 00:24:16;;;;;;;0.10;0.10;;;15.40;98.00;;;;;;5057866;28;20067;-74
2022/10/25 00:27:00;;;;;;;0.00;0.00;;;15.40;98.00;;;;;;5040258;28;20060;-73
2022/10/25 00:29:35;;;;;;;0.00;0.00;;;15.40;98.00;;;;;;5056825;28;20371;-73
2022/10/25 00:32:09;;;;;;;0.00;0.00;;;15.30;98.00;;;;;;5057646;28;20163;-73
2022/10/25 00:34:35;;;;;;;0.00;0.00;;;15.20;98.00;;;;;;5057744;28;20068;-73
2022/10/25 00:37:47;;;;;;;0.03;0.03;;;15.30;98.00;;;;;;5057545;28;20057;-74
2022/10/25 00:40:22;;;;;;;0.00;0.00;;;15.20;98.00;;;;;;5057669;28;20031;-76
2022/10/25 00:42:48;;;;;;;0.30;0.10;;;15.10;98.00;;;;;;5056452;28;20421;-76
2022/10/25 00:45:56;;;;;;;1.45;0.85;;;15.10;98.00;;;;;;5057506;28;20075;-76
2022/10/25 00:48:33;;;;;;;0.20;0.20;;;15.10;98.00;;;;;;5057327;28;20025;-75
2022/10/25 00:51:08;;;;;;;0.50;0.40;;;15.00;98.00;;;;;;5056293;28;20029;-73
2022/10/25 00:53:36;;;;;;;0.50;0.50;;;15.00;98.00;;;;;;5056212;28;20083;-73
2022/10/25 00:56:24;;;;;;;0.20;0.20;;;15.00;98.00;;;;;;5057207;28;20025;-74
2022/10/25 00:59:02;;;;;;;0.00;0.00;;;15.10;98.00;;;;;;5057329;28;20082;-76
2022/10/25 01:02:27;;;;;;;0.10;0.10;;;15.00;98.00;;;;;;5052526;28;20384;-72
2022/10/25 01:04:53;;;;;;;0.10;0.08;;;15.10;98.00;;;;;;5056134;28;20425;-76
2022/10/25 01:07:28;;;;;;;0.32;0.20;;;15.20;98.00;;;;;;5056973;28;20306;-75
2022/10/25 01:10:04;;;;;;;0.43;0.25;;;15.20;98.00;;;;;;5057121;28;20025;-76
2022/10/25 01:15:49;;;;;;;0.25;0.22;;;15.10;98.00;;;;;;5056955;28;19915;-76
2022/10/25 01:18:45;;;;;;;0.00;0.00;;;15.20;98.00;;;;;;5055983;28;20025;-76
2022/10/25 01:21:50;;;;;;;0.00;0.00;;;15.20;98.00;;;;;;5056810;28;20052;-73
2022/10/25 01:24:34;;;;;;;0.55;0.10;;;15.40;98.00;;;;;;5056982;28;20025;-76
2022/10/25 01:27:50;;;;;;;0.00;0.00;;;15.50;98.00;;;;;;5056680;28;20083;-76
2022/10/25 01:31:11;;;;;;;0.15;0.15;;;15.50;98.00;;;;;;5056755;28;20024;-75
2022/10/25 01:33:50;;;;;;;0.20;0.17;;;15.40;98.00;;;;;;5056566;28;20033;-75
2022/10/25 01:37:11;;;;;;;2.90;0.52;;;15.40;98.00;;;;;;5056570;28;20025;-75
2022/10/25 01:40:42;;;;;;;0.00;0.00;;;15.30;98.00;;;;;;5056888;28;20029;-75
2022/10/25 01:43:24;;;;;;;0.00;0.00;;;15.10;98.00;;;;;;5037921;28;20021;-75
2022/10/25 01:46:10;;;;;;;0.22;0.20;;;15.00;98.00;;;;;;5038061;28;20071;-75
2022/10/25 01:49:25;;;;;;;0.00;0.00;;;15.00;98.00;;;;;;5053593;28;20024;-75
2022/10/25 01:52:02;;;;;;;0.00;0.00;;;15.00;98.00;;;;;;5054902;28;20391;-75
2022/10/25 01:54:28;;;;;;;0.00;0.00;;;15.00;98.00;;;;;;5055452;28;20412;-75
2022/10/25 01:57:37;;;;;;;1.55;1.08;;;15.00;98.00;;;;;;5055049;28;20032;-75
2022/10/25 02:00:24;;;;;;;3.15;1.45;;;15.00;98.00;;;;;;5056275;28;20029;-75
2022/10/25 02:03:12;;;;;;;0.00;0.00;;;15.00;98.00;;;;;;5056103;28;20321;-75
2022/10/25 02:06:35;;;;;;;0.00;0.00;;;14.90;98.00;;;;;;5055234;28;20302;-75
2022/10/25 02:13:00;;;;;;;0.30;0.20;;;14.80;98.00;;;;;;5054891;28;20128;-75
2022/10/25 02:15:34;;;;;;;0.05;0.05;;;14.70;98.00;;;;;;5041795;28;20033;-74
2022/10/25 02:18:18;;;;;;;0.00;0.00;;;14.70;98.00;;;;;;5058400;28;20036;-75
2022/10/25 02:20:46;;;;;;;0.00;0.00;;;14.70;98.00;;;;;;5041528;28;20061;-75
2022/10/25 02:23:14;;;;;;;0.15;0.10;;;14.70;98.00;;;;;;5041850;28;20025;-75
2022/10/25 02:25:50;;;;;;;0.35;0.30;;;14.70;98.00;;;;;;5058328;28;20116;-75
2022/10/25 02:28:27;;;;;;;0.00;0.00;;;14.70;98.00;;;;;;5058231;28;20037;-75
2022/10/25 02:31:05;;;;;;;0.13;0.00;;;14.80;98.00;;;;;;5041431;28;20417;-75
2022/10/25 02:33:30;;;;;;;0.55;0.35;;;14.90;98.00;;;;;;5057956;28;20028;-75
2022/10/25 02:36:19;;;;;;;0.00;0.00;;;14.90;98.00;;;;;;5059971;28;20032;-75
2022/10/25 02:38:54;;;;;;;0.00;0.00;;;15.00;98.00;;;;;;5058988;28;20064;-75
2022/10/25 02:41:29;;;;;;;0.20;0.20;;;15.00;98.00;;;;;;5058745;28;20018;-75
2022/10/25 02:43:55;;;;;;;0.10;0.10;;;15.00;98.00;;;;;;5058734;28;20032;-75
2022/10/25 02:46:29;;;;;;;0.00;0.00;;;15.00;98.00;;;;;;5058753;28;20409;-75
2022/10/25 02:49:04;;;;;;;0.17;0.13;;;15.00;98.00;;;;;;5059786;28;20325;-75
2022/10/25 02:51:40;;;;;;;0.10;0.10;;;15.00;98.00;;;;;;5059687;28;20021;-75
2022/10/25 02:54:06;;;;;;;0.00;0.00;;;15.00;98.00;;;;;;5059676;28;20103;-75
2022/10/25 02:56:51;;;;;;;0.10;0.10;;;15.10;98.00;;;;;;5059334;28;20100;-75
2022/10/25 02:59:26;;;;;;;0.00;0.00;;;15.10;98.00;;;;;;5059616;28;20025;-75
2022/10/25 03:02:01;;;;;;;0.00;0.00;;;15.10;98.00;;;;;;5056857;28;20133;-75
2022/10/25 03:04:26;;;;;;;0.00;0.00;;;15.10;98.00;;;;;;5059554;28;20074;-75
2022/10/25 03:07:07;;;;;;;0.08;0.08;;;15.10;98.00;;;;;;5041676;28;20037;-75
2022/10/25 03:09:42;;;;;;;0.00;0.00;;;15.10;98.00;;;;;;5059414;28;20017;-75
2022/10/25 03:12:20;;;;;;;0.00;0.00;;;15.10;98.00;;;;;;5058144;28;20036;-75
2022/10/25 03:14:46;;;;;;;0.00;0.00;;;15.00;98.00;;;;;;5058363;28;20025;-75
2022/10/25 03:17:54;;;;;;;0.00;0.00;;;15.00;98.00;;;;;;5058095;28;20429;-75
2022/10/25 03:20:29;;;;;;;0.00;0.00;;;15.00;98.00;;;;;;5059096;28;20032;-75
2022/10/25 03:26:32;;;;;;;0.00;0.00;;;15.30;98.00;;;;;;5058697;28;20383;-75
2022/10/25 03:29:07;;;;;;;0.00;0.00;;;15.20;98.00;;;;;;5058048;28;20079;-75
2022/10/25 03:31:42;;;;;;;0.10;0.10;;;15.10;98.00;;;;;;5041237;28;20021;-75
2022/10/25 03:34:08;;;;;;;0.30;0.20;;;15.00;98.00;;;;;;5057963;28;20256;-75
2022/10/25 03:37:16;;;;;;;0.00;0.00;;;15.00;98.00;;;;;;5057644;28;20029;-75
2022/10/25 03:39:53;;;;;;;0.05;0.05;;;14.90;98.00;;;;;;5059007;28;20313;-75
2022/10/25 03:42:27;;;;;;;0.00;0.00;;;14.90;98.00;;;;;;5058613;28;20036;-75
2022/10/25 03:44:53;;;;;;;0.20;0.20;;;14.90;98.00;;;;;;5058791;28;20086;-75
2022/10/25 03:47:38;;;;;;;0.13;0.00;;;14.90;98.00;;;;;;5057661;28;20413;-75
2022/10/25 03:50:13;;;;;;;0.00;0.00;;;14.80;98.00;;;;;;5058675;28;20040;-75
2022/10/25 03:52:39;;;;;;;0.00;0.00;;;14.80;98.00;;;;;;5058389;28;20025;-75
2022/10/25 03:55:20;;;;;;;0.00;0.00;;;14.70;98.00;;;;;;5057536;28;20029;-75
2022/10/25 03:57:55;;;;;;;0.00;0.00;;;14.70;98.00;;;;;;5057529;28;20036;-75
2022/10/25 04:00:30;;;;;;;0.00;0.00;;;14.70;98.00;;;;;;5057428;28;20184;-75
2022/10/25 04:06:33;;;;;;;0.20;0.20;;;14.80;98.00;;;;;;5058368;28;20136;-75
2022/10/25 04:09:08;;;;;;;0.10;0.10;;;14.80;98.00;;;;;;5057241;28;20441;-75
2022/10/25 04:15:09;;;;;;;0.68;0.20;;;14.70;98.00;;;;;;5058249;28;20290;-75
2022/10/25 04:17:43;;;;;;;0.57;0.40;;;14.70;98.00;;;;;;5057858;28;20028;-75
2022/10/25 04:20:19;;;;;;;0.40;0.30;;;14.70;98.00;;;;;;5058131;28;20025;-75
2022/10/25 04:22:51;;;;;;;0.00;0.00;;;14.70;98.00;;;;;;5056895;28;20121;-75
2022/10/25 04:25:29;;;;;;;0.10;0.10;;;14.70;98.00;;;;;;5056963;28;20029;-75
2022/10/25 04:28:04;;;;;;;0.40;0.40;;;14.80;98.00;;;;;;5056778;28;20324;-75
2022/10/25 04:30:39;;;;;;;0.05;0.03;;;14.80;98.00;;;;;;5040185;28;20439;-75
2022/10/25 04:33:04;;;;;;;0.63;0.20;;;14.70;98.00;;;;;;5056951;28;20029;-75
2022/10/25 04:35:55;;;;;;;0.10;0.10;;;14.70;98.00;;;;;;5056585;28;20032;-75
2022/10/25 04:38:30;;;;;;;0.40;0.30;;;14.70;98.00;;;;;;5056030;28;20421;-76
2022/10/25 04:41:05;;;;;;;0.00;0.00;;;14.70;98.00;;;;;;5057704;28;20143;-75
2022/10/25 04:47:01;;;;;;;0.15;0.15;;;14.60;98.00;;;;;;5057387;28;20036;-75
2022/10/25 04:49:36;;;;;;;0.32;0.13;;;14.60;98.00;;;;;;5056509;28;20043;-76
2022/10/25 04:52:11;;;;;;;0.10;0.10;;;14.60;98.00;;;;;;5039653;28;20024;-76
2022/10/25 04:54:37;;;;;;;0.00;0.00;;;14.60;98.00;;;;;;5056495;28;20029;-76
2022/10/25 05:00:25;;;;;;;0.00;0.00;;;14.50;98.00;;;;;;5057176;28;20207;-76
2022/10/25 05:02:52;;;;;;;0.00;0.00;;;14.40;98.00;;;;;;5055528;28;20442;-75
2022/10/25 05:05:30;;;;;;;0.00;0.00;;;14.30;98.00;;;;;;5057303;28;20036;-76
2022/10/25 05:08:05;;;;;;;0.00;0.00;;;14.20;98.00;;;;;;5056234;28;20061;-75
2022/10/25 05:10:39;;;;;;;0.10;0.03;;;14.20;98.00;;;;;;5057272;28;20072;-76
2022/10/25 05:13:54;;;;;;;0.00;0.00;;;14.10;98.00;;;;;;5057090;28;20329;-75
2022/10/25 05:16:33;;;;;;;0.10;0.10;;;14.10;98.00;;;;;;5055865;28;20025;-76
2022/10/25 05:19:24;;;;;;;0.00;0.00;;;14.20;98.00;;;;;;5057101;28;20033;-75
2022/10/25 05:25:12;;;;;;;0.00;0.00;;;14.30;98.00;;;;;;5056984;28;20383;-76
2022/10/25 05:27:53;;;;;;;0.55;0.55;;;14.40;98.00;;;;;;5039232;28;20037;-76
2022/10/25 05:30:31;;;;;;;0.15;0.15;;;14.40;98.00;;;;;;5039293;28;20033;-75
2022/10/25 05:37:28;;;;;;;0.22;0.15;;;14.30;98.00;;;;;;5056909;28;20044;-75
2022/10/25 05:40:54;;;;;;;0.10;0.05;;;14.30;98.00;;;;;;5055524;28;20466;-76
2022/10/25 05:43:20;;;;;;;0.10;0.10;;;14.30;98.00;;;;;;5055444;28;20440;-76
2022/10/25 05:46:05;;;;;;;0.20;0.20;;;14.30;98.00;;;;;;5055648;28;20025;-75
2022/10/25 05:48:40;;;;;;;0.20;0.20;;;14.30;98.00;;;;;;5055152;28;20115;-76
2022/10/25 05:51:34;;;;;;;0.00;0.00;;;14.30;98.00;;;;;;5055450;28;20036;-76
2022/10/25 05:54:02;;;;;;;0.25;0.17;;;14.40;98.00;;;;;;5056407;28;20424;-76
2022/10/25 05:56:43;;;;;;;0.13;0.10;;;14.40;98.00;;;;;;5038998;28;20033;-75
2022/10/25 05:59:19;;;;;;;0.10;0.10;;;14.40;98.00;;;;;;5055401;28;20045;-72
2022/10/25 06:05:52;;;;;;;0.03;0.03;;;14.40;98.00;;;;;;5056720;28;20131;-76
2022/10/25 06:08:27;;;;;;;0.30;0.30;;;14.40;98.00;;;;;;5055074;28;20036;-76
2022/10/25 06:11:05;;;;;;;0.22;0.20;;;14.30;98.00;;;;;;5055261;28;20029;-75
2022/10/25 06:17:01;;;;;;;0.22;0.20;;;14.30;98.00;;;;;;5056342;28;20044;-76
2022/10/25 06:19:36;;;;;;;0.43;0.30;;;14.30;98.00;;;;;;5056196;28;20053;-75
2022/10/25 06:25:24;;;;;;;0.00;0.00;;;14.30;98.00;;;;;;5056274;28;20027;-75
2022/10/25 06:27:59;;;;;;;0.20;0.20;;;14.20;98.00;;;;;;5055088;28;20053;-76
2022/10/25 06:30:34;;;;;;;0.03;0.03;;;14.20;98.00;;;;;;5055183;28;20361;-76
2022/10/25 06:33:00;;;;;;;0.00;0.00;;;14.30;98.00;;;;;;5056579;28;20021;-75
2022/10/25 06:35:34;;;;;;;0.00;0.00;;;14.30;98.00;;;;;;5055995;28;20325;-76
2022/10/25 06:38:09;;;;;;;0.30;0.20;;;14.40;98.00;;;;;;5055915;28;20033;-75
2022/10/25 06:40:44;;;;;;;0.17;0.15;;;14.40;98.00;;;;;;5055091;28;20021;-76
2022/10/25 06:46:41;;;;;;;0.00;0.00;;;14.50;98.00;;;;;;5056297;28;20070;-75
2022/10/25 06:49:16;;;;;;;0.00;0.00;;;14.50;98.00;;;;;;5054948;28;20428;-75
2022/10/25 06:55:04;;;;;;;0.00;0.00;;;14.40;98.00;;;;;;5056318;28;20032;-76
2022/10/25 06:57:38;;;;;;;0.30;0.25;;;14.30;98.00;;;;;;5055700;28;20453;-76
2022/10/25 07:00:14;;;;;;;0.00;0.00;;;14.30;98.00;;;;;;5056977;28;20356;-75
2022/10/25 07:03:38;;;;;;;0.00;0.00;;;14.40;98.00;;;;;;5052688;28;20345;-73
2022/10/25 07:07:04;;;;;;;0.20;0.10;;;14.40;98.00;;;;;;5059444;28;20036;-76
2022/10/25 07:10:29;;;;;;;0.05;0.05;;;14.40;98.00;;;;;;5059432;28;20025;-76
2022/10/25 07:12:55;;;;;;;0.45;0.43;;;14.30;98.00;;;;;;5059197;28;20375;-76
2022/10/25 07:15:30;;;;;;;0.93;0.60;;;14.30;98.00;;;;;;5059467;28;20100;-75
2022/10/25 07:18:05;;;;;;;0.00;0.00;;;14.30;98.00;;;;;;5058255;28;20029;-74
2022/10/25 07:20:40;;;;;;;0.00;0.00;;;14.30;98.00;;;;;;5059301;28;20057;-75
2022/10/25 07:23:06;;;;;;;;;;;14.20;98.00;;;;;;5058386;28;20263;-73
2022/10/25 07:25:50;;;;;;;0.00;0.00;;;14.30;98.00;;;;;;5058225;28;19962;-73
2022/10/25 07:28:26;;;;;;;0.13;0.10;;;14.30;98.00;;;;;;5058023;28;20064;-72
2022/10/25 07:31:00;;;;;;;0.32;0.22;;;14.40;98.00;;;;;;5059083;28;20021;-74
2022/10/25 07:37:05;;;;;;;0.10;0.10;;;14.60;98.00;;;;;;5059234;28;20032;-73
2022/10/25 07:39:40;;;;;;;0.00;0.00;;;14.60;98.00;;;;;;5058886;28;20078;-73
2022/10/25 07:45:40;;;;;;;0.13;0.10;;;14.90;98.00;;;;;;5058875;28;20435;-73
2022/10/25 07:48:16;;;;;;;0.10;0.10;;;15.00;98.00;;;;;;5040928;28;20082;-72
2022/10/25 07:50:51;;;;;;;0.45;0.20;;;15.10;98.00;;;;;;5058636;28;20029;-73
2022/10/25 07:53:17;;;;;;;0.45;0.28;;;15.20;98.00;;;;;;5058571;28;20029;-73
2022/10/25 07:59:14;;;;;;;0.00;0.00;;;15.30;98.00;;;;;;5058886;28;20048;-75
2022/10/25 08:01:49;;;;;;;0.00;0.00;;;15.30;98.00;;;;;;5058388;28;20048;-76
2022/10/25 08:04:23;;;;;;;0.00;0.00;;;15.30;98.00;;;;;;5058364;28;20044;-74
2022/10/25 08:07:00;;;;;;;0.00;0.00;;;15.20;98.00;;;;;;5058396;28;20025;-73
2022/10/25 08:09:47;;;;;;;0.30;0.10;;;15.20;98.00;;;;;;5057696;28;20117;-74
2022/10/25 08:15:35;;;;;;;0.10;0.10;;;15.30;98.00;;;;;;5058315;28;20028;-73
2022/10/25 08:18:10;;;;;;;0.10;0.10;;;15.40;98.00;;;;;;5058000;28;20066;-75
2022/10/25 08:20:45;;;;;;;0.00;0.00;;;15.50;98.00;;;;;;5057181;28;20372;-73
2022/10/25 08:26:41;;;;;;;0.10;0.10;;;15.60;98.00;;;;;;5058272;28;20020;-75
2022/10/25 08:29:16;;;;;;;0.10;0.10;;;15.70;98.00;;;;;;5056882;28;20482;-73
2022/10/25 08:31:51;;;;;;;0.00;0.00;;;15.80;98.00;;;;;;5057885;28;20028;-75
2022/10/25 08:34:17;;;;;;;3.30;0.67;;;16.00;98.00;;;;;;5057842;28;20017;-76
2022/10/25 08:36:52;;;;;;;0.00;0.00;;;16.40;98.00;;;;;;5040068;28;20478;-74
2022/10/25 08:39:26;;;;;;;0.07;0.07;;;16.90;98.00;;;;;;5056737;28;20047;-74
2022/10/25 08:42:01;;;;;;;0.17;0.10;;;17.30;98.00;;;;;;5056710;28;20090;-74
2022/10/25 08:45:01;;;;;;;0.00;0.00;;;17.30;98.00;;;;;;5056533;28;20045;-74
2022/10/25 08:47:45;;;;;;;0.05;0.03;;;17.20;98.00;;;;;;5056511;28;20356;-74
2022/10/25 08:50:43;;;;;;;0.15;0.15;;;17.10;98.00;;;;;;5057538;28;20112;-74
2022/10/25 08:56:40;;;;;;;0.10;0.10;;;17.20;98.00;;;;;;5057771;28;20033;-74
2022/10/25 08:59:18;;;;;;;0.00;0.00;;;17.50;98.00;;;;;;5057334;28;20036;-75
2022/10/25 09:12:42;;;;;;;0.10;0.10;;;20.90;90.20;;;;;;5057269;28;20039;-74
2022/10/25 09:15:43;;;;;;;0.05;0.00;;;21.60;86.00;;;;;;5057089;28;20348;-74
2022/10/25 09:18:42;;;;;;;0.05;0.00;;;22.00;85.10;;;;;;5056922;28;20036;-74
2022/10/25 09:21:48;;;;;;;0.00;0.00;;;22.40;85.10;;;;;;5055918;28;20055;-74
2022/10/25 09:24:35;;;;;;;0.10;0.10;;;22.80;84.80;;;;;;5056349;28;20053;-75
2022/10/25 09:27:50;;;;;;;0.10;0.10;;;23.10;82.30;;;;;;5055824;28;20021;-74
2022/10/25 09:30:26;;;;;;;0.00;0.00;;;23.20;83.80;;;;;;5054905;28;20048;-74
2022/10/25 09:33:00;;;;;;;0.13;0.10;;;23.40;85.10;;;;;;5054447;28;20324;-75
2022/10/25 09:39:02;;;;;;;0.00;0.00;;;23.90;81.00;;;;;;5054397;28;20090;-75
2022/10/25 09:44:49;;;;;;;0.00;0.00;;;24.00;79.80;;;;;;4995324;28;20150;-75
2022/10/25 09:48:01;;;;;;;0.00;0.00;;;23.90;81.40;;;;;;4995509;28;20390;-76
2022/10/25 09:51:30;;;;;;;0.20;0.20;;;23.80;82.20;;;;;;4995399;28;20038;-76
2022/10/25 09:57:28;;;;;;;0.15;0.15;;;23.70;82.60;;;;;;4934817;29;20034;-75
2022/10/25 10:00:03;;;;;;;0.10;0.10;;;23.60;80.80;;;;;;4974725;28;20057;-76
2022/10/25 10:02:38;;;;;;;0.10;0.08;;;23.40;80.50;;;;;;4992895;28;20023;-75
2022/10/25 10:05:14;;;;;;;;;;;23.40;82.30;;;;;;4993272;28;20350;-76
2022/10/25 10:07:50;;;;;;;0.10;0.10;;;23.40;83.00;;;;;;5005623;28;20270;-75
2022/10/25 10:10:31;;;;;;;0.22;0.08;;;23.30;81.50;;;;;;5014344;28;20380;-75
2022/10/25 10:13:33;;;;;;;0.03;0.00;;;23.30;82.40;;;;;;5014593;28;20034;-76
2022/10/25 10:16:45;;;;;;;0.00;0.00;;;23.30;81.10;;;;;;5038461;28;20068;-76
2022/10/25 10:19:28;;;;;;;0.00;0.00;;;23.00;84.50;;;;;;5055078;28;20552;-75
2022/10/25 10:25:26;;;;;;;0.10;0.00;;;23.10;85.50;;;;;;5056287;28;20063;-75
2022/10/25 10:28:01;;;;;;;0.20;0.20;;;23.20;83.10;;;;;;5056127;28;20104;-75
2022/10/25 10:30:37;;;;;;;0.00;0.00;;;23.20;82.70;;;;;;5056183;28;20022;-75
2022/10/25 10:36:35;;;;;;;0.10;0.10;;;23.00;84.30;;;;;;5059608;28;20119;-75
2022/10/25 10:42:41;;;;;;;0.00;0.00;;;23.20;82.10;;;;;;5058102;28;20106;-74
2022/10/25 10:45:19;;;;;;;0.00;0.00;;;23.00;84.70;;;;;;5057318;28;20025;-73
2022/10/25 10:47:56;;;;;;;1.63;0.52;;;22.80;85.30;;;;;;5059730;28;20025;-73
2022/10/25 10:50:31;;;;;;;0.10;0.10;;;22.60;85.20;;;;;;5059854;28;20054;-73
2022/10/25 10:53:05;;;;;;;0.00;0.00;;;22.80;84.30;;;;;;5058642;28;20036;-74
2022/10/25 10:55:42;;;;;;;0.17;0.15;;;23.00;85.70;;;;;;5057756;28;20317;-73
2022/10/25 10:58:36;;;;;;;0.00;0.00;;;22.60;81.70;;;;;;5054607;28;20041;-74
2022/10/25 11:01:46;;;;;;;0.10;0.10;;;22.60;82.30;;;;;;5054874;28;20370;-73
2022/10/25 11:04:21;;;;;;;0.20;0.10;;;23.00;83.50;;;;;;5053372;28;20041;-74
2022/10/25 11:11:27;;;;;;;0.10;0.10;;;23.50;81.80;;;;;;5018230;28;20377;-74
2022/10/25 11:13:55;;;;;;;2.28;0.98;;;23.70;80.90;;;;;;5018705;28;20030;-73
2022/10/25 11:17:04;;;;;;;0.15;0.00;;;23.80;81.00;;;;;;5018575;28;20048;-74
2022/10/25 11:20:10;;;;;;;0.17;0.10;;;23.80;79.70;;;;;;5019613;28;20152;-74
2022/10/25 11:26:32;;;;;;;0.77;0.20;;;23.80;81.90;;;;;;5019684;28;20028;-74
2022/10/25 11:30:02;;;;;;;0.10;0.10;;;24.00;83.40;;;;;;5019793;28;20022;-74
2022/10/25 11:33:05;;;;;;;0.10;0.00;;;23.90;81.00;;;;;;5020507;28;20022;-74
2022/10/25 11:36:11;;;;;;;0.08;0.08;;;23.80;80.70;;;;;;5020461;28;20048;-74
2022/10/25 11:39:14;;;;;;;0.10;0.10;;;23.80;82.80;;;;;;5037050;28;20057;-74
2022/10/25 11:45:33;;;;;;;0.00;0.00;;;23.60;80.10;;;;;;5019293;28;20052;-74
2022/10/25 11:48:36;;;;;;;0.88;0.52;;;23.50;82.70;;;;;;5018899;28;20026;-74
2022/10/25 11:51:40;;;;;;;0.00;0.00;;;23.50;82.90;;;;;;5018943;28;20018;-74
2022/10/25 11:54:30;;;;;;;0.10;0.03;;;23.40;83.10;;;;;;5018784;28;20030;-74
2022/10/25 11:57:17;;;;;;;0.00;0.00;;;23.40;83.20;;;;;;5018973;28;20061;-74
2022/10/25 12:03:08;;;;;;;0.10;0.10;;;23.10;83.60;;;;;;5019053;28;20369;-73
2022/10/25 12:06:04;;;;;;;0.10;0.00;;;23.00;82.30;;;;;;5017940;28;20037;-73
2022/10/25 12:09:05;;;;;;;0.10;0.00;;;22.70;85.30;;;;;;5058311;28;20036;-73
2022/10/25 12:11:47;;;;;;;0.00;0.00;;;22.20;84.90;;;;;;5058377;28;20025;-74
2022/10/25 12:14:35;;;;;;;0.03;0.03;;;22.10;87.00;;;;;;5058267;28;20031;-73
2022/10/25 12:17:39;;;;;;;0.60;0.10;;;22.10;89.00;;;;;;5056779;28;20044;-73
2022/10/25 12:20:29;;;;;;;0.00;0.00;;;22.10;86.60;;;;;;5057655;28;20068;-73
2022/10/25 12:22:58;;;;;;;1.10;0.20;;;21.90;86.90;;;;;;5057972;28;20025;-73
2022/10/25 12:26:04;;;;;;;0.05;0.00;;;21.80;88.00;;;;;;5058007;28;20044;-73
2022/10/25 12:29:04;;;;;;;0.10;0.10;;;21.60;87.60;;;;;;5057953;28;20032;-73
2022/10/25 12:31:55;;;;;;;0.00;0.00;;;21.50;85.00;;;;;;5056720;28;20485;-73
2022/10/25 12:34:46;;;;;;;0.20;0.20;;;21.40;89.90;;;;;;5056791;28;20033;-73
2022/10/25 12:37:46;;;;;;;0.00;0.00;;;21.40;88.90;;;;;;5056613;28;20032;-74
2022/10/25 12:40:22;;;;;;;0.00;0.00;;;21.40;89.60;;;;;;5057786;28;20029;-73
2022/10/25 12:46:28;;;;;;;0.40;0.17;;;21.10;91.10;;;;;;5057885;28;20424;-73
2022/10/25 12:49:32;;;;;;;0.00;0.00;;;21.00;88.20;;;;;;5057688;28;20070;-74
2022/10/25 12:56:02;;;;;;;0.20;0.10;;;20.90;91.00;;;;;;5057603;28;20025;-72
2022/10/25 12:58:55;;;;;;;0.00;0.00;;;20.90;92.40;;;;;;5056917;28;20028;-73
2022/10/25 13:05:20;;;;;;;0.00;0.00;;;21.00;90.80;;;;;;5055765;28;20044;-73
2022/10/25 13:08:46;;;;;;;0.10;0.10;;;21.10;92.10;;;;;;5053696;28;20044;-73
2022/10/25 13:12:09;;;;;;;0.10;0.00;;;21.20;88.10;;;;;;5055225;28;20033;-73
2022/10/25 13:15:34;;;;;;;0.00;0.00;;;21.20;91.90;;;;;;5056039;28;20041;-72
2022/10/25 13:18:31;;;;;;;0.80;0.35;;;21.10;87.30;;;;;;5057030;28;20041;-73
2022/10/25 13:21:14;;;;;;;0.10;0.10;;;21.00;89.80;;;;;;5057034;28;20036;-72
2022/10/25 13:27:45;;;;;;;0.00;0.00;;;21.10;88.50;;;;;;5057138;28;20035;-73
2022/10/25 13:30:28;;;;;;;1.55;0.70;;;21.10;88.40;;;;;;5056800;28;20060;-73
2022/10/25 13:37:06;;;;;;;0.10;0.10;;;20.90;87.90;;;;;;5056941;28;20470;-73
2022/10/25 13:39:53;;;;;;;0.00;0.00;;;20.80;87.00;;;;;;5054691;28;20353;-73
2022/10/25 13:45:43;;;;;;;0.00;0.00;;;20.80;89.40;;;;;;5055105;28;20029;-73
2022/10/25 13:48:28;;;;;;;0.10;0.10;;;20.60;88.30;;;;;;5037937;28;20035;-73
2022/10/25 13:51:20;;;;;;;0.00;0.00;;;20.60;89.30;;;;;;5054585;28;20433;-73
2022/10/25 13:53:48;;;;;;;0.15;0.10;;;20.50;88.20;;;;;;5054583;28;20427;-73
2022/10/25 13:56:35;;;;;;;0.17;0.10;;;20.50;88.50;;;;;;5021528;28;20041;-73
2022/10/25 13:59:45;;;;;;;0.25;0.10;;;20.40;89.40;;;;;;5054470;28;20087;-73
2022/10/25 14:05:56;;;;;;;0.00;0.00;;;20.10;88.50;;;;;;5054875;28;20040;-73
2022/10/25 14:08:42;;;;;;;0.00;0.00;;;20.00;89.50;;;;;;5037301;28;20045;-72
2022/10/25 14:11:37;;;;;;;0.30;0.10;;;19.90;90.50;;;;;;5037587;28;20033;-73
2022/10/25 14:17:41;;;;;;;0.00;0.00;;;19.70;91.40;;;;;;5056288;28;20074;-72
2022/10/25 14:20:33;;;;;;;0.03;0.00;;;19.50;90.90;;;;;;5056159;28;20113;-73
2022/10/25 14:26:36;;;;;;;0.15;0.10;;;19.50;92.30;;;;;;5056408;28;20053;-73
2022/10/25 14:29:23;;;;;;;0.00;0.00;;;19.50;91.60;;;;;;5055226;28;20037;-73
2022/10/25 14:35:12;;;;;;;0.00;0.00;;;19.30;90.40;;;;;;5056459;28;20211;-73
2022/10/25 14:37:50;;;;;;;0.08;0.00;;;19.20;91.30;;;;;;5055013;28;20036;-73
2022/10/25 14:40:28;;;;;;;0.00;0.00;;;19.10;91.00;;;;;;5056084;28;20029;-73
2022/10/25 14:42:54;;;;;;;0.10;0.10;;;19.00;89.90;;;;;;5055871;28;20313;-72
2022/10/25 14:45:35;;;;;;;0.20;0.10;;;19.00;90.40;;;;;;5054974;28;20330;-73
2022/10/25 14:48:10;;;;;;;0.55;0.52;;;19.00;92.00;;;;;;5056001;28;20037;-72
2022/10/25 14:50:45;;;;;;;0.10;0.03;;;18.90;90.60;;;;;;5056019;28;20032;-75
2022/10/25 14:56:50;;;;;;;0.28;0.15;;;18.70;93.40;;;;;;5056409;28;20083;-73
2022/10/25 14:59:37;;;;;;;0.08;0.08;;;18.60;92.90;;;;;;5054836;28;20063;-73
2022/10/25 15:05:50;;;;;;;0.00;0.00;;;18.40;94.10;;;;;;5056250;28;20021;-73
2022/10/25 15:08:28;;;;;;;0.15;0.15;;;18.40;94.50;;;;;;5055657;28;20045;-72
2022/10/25 15:11:06;;;;;;;0.25;0.25;;;18.30;94.00;;;;;;5054682;28;20033;-73
2022/10/25 15:17:05;;;;;;;0.08;0.00;;;18.30;95.30;;;;;;5055630;28;20390;-73
2022/10/25 15:23:27;;;;;;;0.10;0.08;;;18.10;96.00;;;;;;5059135;28;20055;-72
2022/10/25 15:26:31;;;;;;;0.05;0.05;;;18.00;96.60;;;;;;5059155;28;20032;-73
2022/10/25 15:29:05;;;;;;;0.00;0.00;;;17.90;97.50;;;;;;5040518;28;20064;-74
2022/10/25 15:31:42;;;;;;;0.32;0.30;;;17.80;98.00;;;;;;5057295;28;20099;-76
2022/10/25 15:34:11;;;;;;;1.38;0.73;;;17.60;98.00;;;;;;5041350;28;20413;-75
2022/10/25 15:36:49;;;;;;;0.20;0.10;;;17.40;98.00;;;;;;5041161;28;20090;-74
2022/10/25 15:46:48;;;;;;;0.03;0.00;;;16.90;98.00;;;;;;5059136;28;20036;-73
2022/10/25 15:49:23;;;;;;;0.00;0.00;;;16.70;98.00;;;;;;5058758;28;20317;-73
2022/10/25 15:55:27;;;;;;;0.17;0.17;;;16.30;98.00;;;;;;5057531;28;20443;-74
2022/10/25 15:58:02;;;;;;;0.00;0.00;;;16.20;98.00;;;;;;5056403;28;20033;-73
2022/10/25 16:00:37;;;;;;;0.00;0.00;;;16.10;98.00;;;;;;5057116;28;20053;-74
2022/10/25 16:03:04;;;;;;;0.10;0.10;;;16.00;98.00;;;;;;5055826;28;20040;-74
2022/10/25 16:05:39;;;;;;;0.03;0.03;;;15.90;98.00;;;;;;5057256;28;20029;-74
2022/10/25 16:09:04;;;;;;;0.00;0.00;;;15.80;98.00;;;;;;5055204;28;20037;-73
2022/10/25 16:16:05;;;;;;;0.03;0.03;;;15.70;98.00;;;;;;5058427;28;20068;-73
2022/10/25 16:19:31;;;;;;;0.10;0.10;;;15.60;98.00;;;;;;5057040;28;20087;-73
2022/10/25 16:25:32;;;;;;;5.35;1.88;;;15.50;98.00;;;;;;5058448;28;20036;-73
2022/10/25 16:28:12;;;;;;;0.40;0.20;;;15.50;98.00;;;;;;5056851;28;20417;-73
2022/10/25 16:30:47;;;;;;;0.00;0.00;;;15.50;98.00;;;;;;5057985;28;20425;-73
2022/10/25 16:36:49;;;;;;;0.40;0.30;;;15.40;98.00;;;;;;5057988;28;20112;-75
2022/10/25 16:39:24;;;;;;;0.10;0.10;;;15.40;98.00;;;;;;5058287;28;20104;-74
2022/10/25 16:45:44;;;;;;;0.10;0.05;;;15.30;98.00;;;;;;5058455;28;20466;-73
2022/10/25 16:48:18;;;;;;;0.20;0.10;;;15.20;98.00;;;;;;5057310;28;20094;-73
2022/10/25 16:50:53;;;;;;;0.00;0.00;;;15.10;98.00;;;;;;5056431;28;20025;-73
2022/10/25 16:53:19;;;;;;;0.00;0.00;;;15.00;98.00;;;;;;5057466;28;20306;-73
2022/10/25 16:56:00;;;;;;;0.77;0.73;;;15.00;98.00;;;;;;5057373;28;20044;-73
2022/10/25 16:58:34;;;;;;;0.00;0.00;;;14.90;98.00;;;;;;5057300;28;20033;-73
2022/10/25 17:01:40;;;;;;;0.47;0.32;;;14.90;98.00;;;;;;5056521;28;20317;-73
2022/10/25 17:04:05;;;;;;;0.00;0.00;;;14.90;98.00;;;;;;5056971;28;20332;-73
2022/10/25 17:06:31;;;;;;;0.15;0.15;;;14.80;98.00;;;;;;5054686;28;20146;-75
2022/10/25 17:09:06;;;;;;;0.00;0.00;;;14.80;98.00;;;;;;5057274;28;20416;-73
2022/10/25 17:11:42;;;;;;;0.00;0.00;;;14.80;98.00;;;;;;5057180;28;20033;-73
2022/10/25 17:14:09;;;;;;;0.00;0.00;;;14.80;98.00;;;;;;5057161;28;20104;-73
2022/10/25 17:16:44;;;;;;;0.00;0.00;;;14.80;98.00;;;;;;5057054;28;20033;-75